createdAt,value
2023-03-20T00:02:06.709Z,4.53
2023-03-20T00:04:33.548Z,4.20
2023-03-20T00:07:00.351Z,4.41
2023-03-20T00:09:27.161Z,4.51
2023-03-20T00:11:58.250Z,4.51
2023-03-20T00:14:25.253Z,4.57
2023-03-20T00:16:52.284Z,4.58
2023-03-20T00:19:23.354Z,4.53
2023-03-20T00:21:51.228Z,4.50
2023-03-20T00:24:18.459Z,4.49
2023-03-20T00:26:46.372Z,4.49
2023-03-20T00:29:34.891Z,4.39
2023-03-20T00:32:01.470Z,4.35
2023-03-20T00:34:29.634Z,4.32
2023-03-20T00:36:58.093Z,4.41
2023-03-20T00:39:25.039Z,4.53
2023-03-20T00:41:53.209Z,4.57
2023-03-20T00:44:26.541Z,4.69
2023-03-20T00:47:01.944Z,4.71
2023-03-20T00:49:34.082Z,4.61
2023-03-20T00:52:03.472Z,4.69
2023-03-20T00:54:31.034Z,4.69
2023-03-20T00:57:02.931Z,4.76
2023-03-20T00:59:36.944Z,4.37
2023-03-20T01:02:04.350Z,4.17
2023-03-20T01:04:40.018Z,3.97
2023-03-20T01:07:08.142Z,4.03
2023-03-20T01:09:36.210Z,4.06
2023-03-20T01:12:03.570Z,4.17
2023-03-20T01:14:30.406Z,4.32
2023-03-20T01:16:57.379Z,4.29
2023-03-20T01:19:24.081Z,4.43
2023-03-20T01:21:51.514Z,4.54
2023-03-20T01:24:19.042Z,4.55
2023-03-20T01:26:46.545Z,4.72
2023-03-20T01:29:25.079Z,4.79
2023-03-20T01:31:53.400Z,4.85
2023-03-20T01:34:22.557Z,4.90
2023-03-20T01:36:53.063Z,4.91
2023-03-20T01:39:21.947Z,4.87
2023-03-20T01:41:51.001Z,5.00
2023-03-20T01:44:27.321Z,5.01
2023-03-20T01:46:58.302Z,4.91
2023-03-20T01:49:25.366Z,4.76
2023-03-20T01:51:56.530Z,4.66
2023-03-20T01:54:34.496Z,4.53
2023-03-20T01:57:18.507Z,4.50
2023-03-20T01:59:50.033Z,4.37
2023-03-20T02:02:24.798Z,4.21
2023-03-20T02:04:57.596Z,4.13
2023-03-20T02:07:24.700Z,4.05
2023-03-20T02:10:15.822Z,4.04
2023-03-20T02:12:57.111Z,4.04
2023-03-20T02:15:31.222Z,3.99
2023-03-20T02:18:12.995Z,4.02
2023-03-20T02:20:50.444Z,3.97
2023-03-20T02:24:15.405Z,3.87
2023-03-20T02:26:50.039Z,3.78
2023-03-20T02:29:42.479Z,3.65
2023-03-20T02:32:42.984Z,3.52
2023-03-20T02:35:45.862Z,3.57
2023-03-20T02:38:34.400Z,3.61
2023-03-20T02:41:15.486Z,3.60
2023-03-20T02:43:50.275Z,3.60
2023-03-20T02:46:29.357Z,3.40
2023-03-20T02:49:29.947Z,3.20
2023-03-20T02:52:13.476Z,3.04
2023-03-20T02:54:56.074Z,3.16
2023-03-20T02:57:51.527Z,3.25
2023-03-20T03:00:35.638Z,3.35
2023-03-20T03:03:27.698Z,3.39
2023-03-20T03:06:04.849Z,3.42
2023-03-20T03:08:38.120Z,3.46
2023-03-20T03:11:08.675Z,3.46
2023-03-20T03:13:55.511Z,3.45
2023-03-20T03:16:36.044Z,3.28
2023-03-20T03:19:12.835Z,3.35
2023-03-20T03:21:41.714Z,3.26
2023-03-20T03:24:45.587Z,3.20
2023-03-20T03:27:50.606Z,3.14
2023-03-20T03:30:31.214Z,3.04
2023-03-20T03:33:15.456Z,3.05
2023-03-20T03:35:42.432Z,3.17
2023-03-20T03:38:31.120Z,3.37
2023-03-20T03:41:28.912Z,3.29
2023-03-20T03:44:22.953Z,3.13
2023-03-20T03:47:18.746Z,2.95
2023-03-20T03:49:53.904Z,2.85
2023-03-20T03:52:24.641Z,2.92
2023-03-20T03:54:56.670Z,2.92
2023-03-20T03:57:36.670Z,2.92
2023-03-20T04:00:08.969Z,2.97
2023-03-20T04:02:46.943Z,3.06
2023-03-20T04:05:16.162Z,3.20
2023-03-20T04:07:47.153Z,3.27
2023-03-20T04:10:15.468Z,3.23
2023-03-20T04:12:44.771Z,3.21
2023-03-20T04:15:13.203Z,3.18
2023-03-20T04:17:40.619Z,3.08
2023-03-20T04:20:10.762Z,2.99
2023-03-20T04:22:37.623Z,2.97
2023-03-20T04:25:15.042Z,2.94
2023-03-20T04:27:41.789Z,2.91
2023-03-20T04:30:15.643Z,2.83
2023-03-20T04:33:02.703Z,2.93
2023-03-20T04:35:53.142Z,2.91
2023-03-20T04:38:20.653Z,3.00
2023-03-20T04:40:48.093Z,3.05
2023-03-20T04:43:16.280Z,3.08
2023-03-20T04:45:43.352Z,3.13
2023-03-20T04:48:10.657Z,3.20
2023-03-20T04:50:37.642Z,3.25
2023-03-20T04:53:05.841Z,3.28
2023-03-20T04:55:33.141Z,3.31
2023-03-20T04:58:00.122Z,3.37
2023-03-20T05:00:28.783Z,3.25
2023-03-20T05:02:55.637Z,3.40
2023-03-20T05:05:23.691Z,3.42
2023-03-20T05:07:52.467Z,3.25
2023-03-20T05:10:39.429Z,3.11
2023-03-20T05:13:18.139Z,3.08
2023-03-20T05:16:17.502Z,3.09
2023-03-20T05:19:10.511Z,3.26
2023-03-20T05:21:40.300Z,3.29
2023-03-20T05:24:13.417Z,3.52
2023-03-20T05:27:18.762Z,3.55
2023-03-20T05:30:12.154Z,3.88
2023-03-20T05:33:02.245Z,4.03
2023-03-20T05:35:29.161Z,4.02
2023-03-20T05:38:06.332Z,3.88
2023-03-20T05:41:02.503Z,3.66
2023-03-20T05:43:52.221Z,3.61
2023-03-20T05:46:42.124Z,3.62
2023-03-20T05:49:21.493Z,3.71
2023-03-20T05:52:07.323Z,3.82
2023-03-20T05:54:52.383Z,3.92
2023-03-20T05:57:37.771Z,4.00
2023-03-20T06:00:24.909Z,4.04
2023-03-20T06:03:12.273Z,4.08
2023-03-20T06:05:59.386Z,4.19
2023-03-20T06:08:26.360Z,4.25
2023-03-20T06:10:54.449Z,4.30
2023-03-20T06:13:21.240Z,4.34
2023-03-20T06:15:48.068Z,4.44
2023-03-20T06:18:17.523Z,4.48
2023-03-20T06:20:44.662Z,4.55
2023-03-20T06:23:12.107Z,4.63
2023-03-20T06:25:38.798Z,4.68
2023-03-20T06:28:06.843Z,4.70
2023-03-20T06:30:33.892Z,4.73
2023-03-20T06:33:01.030Z,4.77
2023-03-20T06:35:36.817Z,4.82
2023-03-20T06:38:04.266Z,4.80
2023-03-20T06:40:31.966Z,4.87
2023-03-20T06:42:58.912Z,4.95
2023-03-20T06:45:35.275Z,5.07
2023-03-20T06:48:09.507Z,5.13
2023-03-20T06:50:36.505Z,5.28
2023-03-20T06:53:03.731Z,5.44
2023-03-20T06:55:33.592Z,5.61
2023-03-20T06:58:00.679Z,5.69
2023-03-20T07:00:30.063Z,5.76
2023-03-20T07:02:57.160Z,5.78
2023-03-20T07:05:24.248Z,5.83
2023-03-20T07:07:51.045Z,5.90
2023-03-20T07:10:17.804Z,5.69
2023-03-20T07:12:50.965Z,6.07
2023-03-20T07:15:18.602Z,6.16
2023-03-20T07:17:45.959Z,6.32
2023-03-20T07:20:13.399Z,6.41
2023-03-20T07:22:45.525Z,6.49
2023-03-20T07:25:20.552Z,6.67
2023-03-20T07:27:54.470Z,6.79
2023-03-20T07:30:23.838Z,6.78
2023-03-20T07:32:51.513Z,6.83
2023-03-20T07:35:20.401Z,6.82
2023-03-20T07:37:47.158Z,7.02
2023-03-20T07:40:14.065Z,7.08
2023-03-20T07:42:55.511Z,7.28
2023-03-20T07:45:44.999Z,7.41
2023-03-20T07:48:12.026Z,7.49
2023-03-20T07:50:39.543Z,7.61
2023-03-20T07:53:07.946Z,7.66
2023-03-20T07:55:34.853Z,7.75
2023-03-20T07:58:02.569Z,7.97
2023-03-20T08:00:29.642Z,8.05
2023-03-20T08:02:57.092Z,8.10
2023-03-20T08:05:24.367Z,8.05
2023-03-20T08:07:51.312Z,8.15
2023-03-20T08:10:18.480Z,8.19
2023-03-20T08:12:45.231Z,8.25
2023-03-20T08:15:12.008Z,8.39
2023-03-20T08:17:41.724Z,8.47
2023-03-20T08:20:09.237Z,8.60
2023-03-20T08:22:35.934Z,8.65
2023-03-20T08:25:02.740Z,8.69
2023-03-20T08:27:29.478Z,8.69
2023-03-20T08:29:56.588Z,8.81
2023-03-20T08:32:23.283Z,9.04
2023-03-20T08:34:50.032Z,9.23
2023-03-20T08:37:17.021Z,9.45
2023-03-20T08:39:44.346Z,9.67
2023-03-20T08:42:11.057Z,9.86
2023-03-20T08:44:37.843Z,9.95
2023-03-20T08:47:05.540Z,10.01
2023-03-20T08:49:32.455Z,10.13
2023-03-20T08:52:00.496Z,10.26
2023-03-20T08:54:27.590Z,10.35
2023-03-20T08:56:54.294Z,10.50
2023-03-20T08:59:21.214Z,10.63
2023-03-20T09:01:50.198Z,10.80
2023-03-20T09:04:17.816Z,10.91
2023-03-20T09:06:44.324Z,10.88
2023-03-20T09:09:11.442Z,11.11
2023-03-20T09:11:38.218Z,11.34
2023-03-20T09:14:05.147Z,11.58
2023-03-20T09:16:31.985Z,11.75
2023-03-20T09:18:58.818Z,11.87
2023-03-20T09:21:25.668Z,12.01
2023-03-20T09:23:52.409Z,12.10
2023-03-20T09:26:19.131Z,12.24
2023-03-20T09:28:46.030Z,12.24
2023-03-20T09:31:12.781Z,11.98
2023-03-20T09:33:39.527Z,12.13
2023-03-20T09:36:08.444Z,12.28
2023-03-20T09:38:35.201Z,12.41
2023-03-20T09:41:04.675Z,12.57
2023-03-20T09:43:54.294Z,12.75
2023-03-20T09:46:39.844Z,12.90
2023-03-20T09:49:31.847Z,12.86
2023-03-20T09:52:09.420Z,12.92
2023-03-20T09:54:54.178Z,13.00
2023-03-20T09:57:39.025Z,13.20
2023-03-20T10:00:28.373Z,13.39
2023-03-20T10:03:21.760Z,13.65
2023-03-20T10:05:56.318Z,13.82
2023-03-20T10:08:28.656Z,13.96
2023-03-20T10:11:01.503Z,14.31
2023-03-20T10:13:37.276Z,14.90
2023-03-20T10:16:16.075Z,15.45
2023-03-20T10:19:07.710Z,16.01
2023-03-20T10:21:46.407Z,16.55
2023-03-20T10:24:21.578Z,17.07
2023-03-20T10:26:52.767Z,17.21
2023-03-20T10:29:38.545Z,17.21
2023-03-20T10:32:23.164Z,17.57
2023-03-20T10:35:12.677Z,17.64
2023-03-20T10:37:50.934Z,17.33
2023-03-20T10:40:26.857Z,17.73
2023-03-20T10:42:57.968Z,17.88
2023-03-20T10:45:43.477Z,18.44
2023-03-20T10:48:35.410Z,18.14
2023-03-20T10:51:03.625Z,18.00
2023-03-20T10:53:57.098Z,17.47
2023-03-20T10:56:37.453Z,17.52
2023-03-20T10:59:08.926Z,17.82
2023-03-20T11:01:36.141Z,17.78
2023-03-20T11:04:03.034Z,17.50
2023-03-20T11:06:40.519Z,17.90
2023-03-20T11:09:19.215Z,17.85
2023-03-20T11:11:47.804Z,17.44
2023-03-20T11:14:24.300Z,17.84
2023-03-20T11:16:56.554Z,17.81
2023-03-20T11:19:24.461Z,18.19
2023-03-20T11:21:57.169Z,18.11
2023-03-20T11:24:35.845Z,18.21
2023-03-20T11:27:16.074Z,18.81
2023-03-20T11:29:45.856Z,19.13
2023-03-20T11:32:34.067Z,18.98
2023-03-20T11:35:22.952Z,19.26
2023-03-20T11:37:52.789Z,19.83
2023-03-20T11:40:47.949Z,19.92
2023-03-20T11:43:19.821Z,19.27
2023-03-20T11:45:54.461Z,19.44
2023-03-20T11:48:25.037Z,18.60
2023-03-20T11:51:03.728Z,19.61
2023-03-20T11:53:57.077Z,19.41
2023-03-20T11:56:29.097Z,19.41
2023-03-20T11:59:11.901Z,19.88
2023-03-20T12:01:49.026Z,19.96
2023-03-20T12:04:18.377Z,20.05
2023-03-20T12:06:55.069Z,20.48
2023-03-20T12:09:27.373Z,21.02
2023-03-20T12:12:49.659Z,20.28
2023-03-20T12:15:31.430Z,21.15
2023-03-20T12:18:33.024Z,20.91
2023-03-20T12:21:08.789Z,21.48
2023-03-20T12:24:10.626Z,21.76
2023-03-20T12:27:03.975Z,21.10
2023-03-20T12:29:40.869Z,20.41
2023-03-20T12:32:23.144Z,19.64
2023-03-20T12:34:57.943Z,20.46
2023-03-20T12:37:24.863Z,20.48
2023-03-20T12:39:53.633Z,20.24
2023-03-20T12:42:47.884Z,19.88
2023-03-20T12:45:24.471Z,20.07
2023-03-20T12:48:12.616Z,20.01
2023-03-20T12:50:48.065Z,20.50
2023-03-20T12:53:47.052Z,20.75
2023-03-20T12:56:31.790Z,20.03
2023-03-20T12:59:20.094Z,20.49
2023-03-20T13:01:58.421Z,21.42
2023-03-20T13:04:58.222Z,22.35
2023-03-20T13:08:23.449Z,22.43
2023-03-20T13:11:15.743Z,21.68
2023-03-20T13:13:42.487Z,21.35
2023-03-20T13:16:12.134Z,21.21
2023-03-20T13:18:54.170Z,20.94
2023-03-20T13:22:04.917Z,20.28
2023-03-20T13:24:53.535Z,19.53
2023-03-20T13:27:37.264Z,19.00
2023-03-20T13:30:18.622Z,18.86
2023-03-20T13:32:57.214Z,18.16
2023-03-20T13:35:37.507Z,18.11
2023-03-20T13:38:22.015Z,18.05
2023-03-20T13:40:55.482Z,18.18
2023-03-20T13:43:34.943Z,18.41
2023-03-20T13:46:07.853Z,18.71
2023-03-20T13:48:37.902Z,18.90
2023-03-20T13:51:35.926Z,19.03
2023-03-20T13:54:24.242Z,18.98
2023-03-20T13:57:16.875Z,18.49
2023-03-20T13:59:49.420Z,18.18
2023-03-20T14:02:41.100Z,18.42
2023-03-20T14:05:19.990Z,18.29
2023-03-20T14:07:48.256Z,18.30
2023-03-20T14:10:20.710Z,18.50
2023-03-20T14:13:00.360Z,18.74
2023-03-20T14:15:31.900Z,18.84
2023-03-20T14:18:04.800Z,18.74
2023-03-20T14:20:35.829Z,18.41
2023-03-20T14:23:04.766Z,18.00
2023-03-20T14:25:43.812Z,17.88
2023-03-20T14:28:13.503Z,17.80
2023-03-20T14:30:43.120Z,17.59
2023-03-20T14:33:16.850Z,17.48
2023-03-20T14:35:51.122Z,17.22
2023-03-20T14:38:20.695Z,17.33
2023-03-20T14:41:23.056Z,17.31
2023-03-20T14:43:58.716Z,17.25
2023-03-20T14:46:51.044Z,17.16
2023-03-20T14:49:39.587Z,17.01
2023-03-20T14:52:35.332Z,17.16
2023-03-20T14:55:30.610Z,17.19
2023-03-20T14:58:02.351Z,17.22
2023-03-20T15:00:35.885Z,17.25
2023-03-20T15:03:16.324Z,17.21
2023-03-20T15:05:44.746Z,17.13
2023-03-20T15:08:24.837Z,17.07
2023-03-20T15:10:55.495Z,17.11
2023-03-20T15:13:24.769Z,17.09
2023-03-20T15:15:57.038Z,17.11
2023-03-20T15:18:26.741Z,16.95
2023-03-20T15:20:56.584Z,16.93
2023-03-20T15:23:23.802Z,16.90
2023-03-20T15:25:50.959Z,16.86
2023-03-20T15:28:20.073Z,16.81
2023-03-20T15:30:49.314Z,16.62
2023-03-20T15:33:22.839Z,16.48
2023-03-20T15:35:50.299Z,16.28
2023-03-20T15:38:18.257Z,16.18
2023-03-20T15:40:51.033Z,16.11
2023-03-20T15:43:26.145Z,16.04
2023-03-20T15:46:14.295Z,15.97
2023-03-20T15:48:46.827Z,15.91
2023-03-20T15:51:14.185Z,15.88
2023-03-20T15:53:44.705Z,15.84
2023-03-20T15:56:26.423Z,15.86
2023-03-20T15:58:55.825Z,15.87
2023-03-20T16:01:25.941Z,15.86
2023-03-20T16:03:58.205Z,15.86
2023-03-20T16:06:25.550Z,15.87
2023-03-20T16:09:06.455Z,15.77
2023-03-20T16:11:41.335Z,15.67
2023-03-20T16:14:14.524Z,15.65
2023-03-20T16:16:41.576Z,15.63
2023-03-20T16:19:08.305Z,15.47
2023-03-20T16:21:38.505Z,15.40
2023-03-20T16:24:09.202Z,15.19
2023-03-20T16:26:44.176Z,15.22
2023-03-20T16:29:14.586Z,15.26
2023-03-20T16:31:49.795Z,15.57
2023-03-20T16:34:24.003Z,16.16
2023-03-20T16:36:59.019Z,16.42
2023-03-20T16:39:29.700Z,16.52
2023-03-20T16:42:02.850Z,16.06
2023-03-20T16:44:36.311Z,15.86
2023-03-20T16:47:20.341Z,15.84
2023-03-20T16:49:47.422Z,15.65
2023-03-20T16:52:15.903Z,15.38
2023-03-20T16:54:44.422Z,15.15
2023-03-20T16:57:17.403Z,14.88
2023-03-20T16:59:44.805Z,14.75
2023-03-20T17:02:21.546Z,14.59
2023-03-20T17:04:48.779Z,14.41
2023-03-20T17:07:25.592Z,14.26
2023-03-20T17:09:59.528Z,14.13
2023-03-20T17:12:31.190Z,14.01
2023-03-20T17:14:57.972Z,13.86
2023-03-20T17:17:26.482Z,13.71
2023-03-20T17:19:53.293Z,13.72
2023-03-20T17:22:25.623Z,13.57
2023-03-20T17:24:53.104Z,13.57
2023-03-20T17:27:20.448Z,13.47
2023-03-20T17:29:51.409Z,13.39
2023-03-20T17:32:20.506Z,13.28
2023-03-20T17:34:47.210Z,13.17
2023-03-20T17:37:17.331Z,13.04
2023-03-20T17:39:44.078Z,12.93
2023-03-20T17:42:24.446Z,12.84
2023-03-20T17:44:51.248Z,12.75
2023-03-20T17:47:26.256Z,12.57
2023-03-20T17:49:54.551Z,12.51
2023-03-20T17:52:24.094Z,12.38
2023-03-20T17:54:51.547Z,12.29
2023-03-20T17:57:28.281Z,12.27
2023-03-20T17:59:55.445Z,12.17
2023-03-20T18:02:22.376Z,12.19
2023-03-20T18:04:50.017Z,12.07
2023-03-20T18:07:17.759Z,12.02
2023-03-20T18:09:45.413Z,11.86
2023-03-20T18:12:15.696Z,11.65
2023-03-20T18:14:43.445Z,11.58
2023-03-20T18:17:14.385Z,11.53
2023-03-20T18:19:42.022Z,11.49
2023-03-20T18:22:09.074Z,11.45
2023-03-20T18:24:36.155Z,11.38
2023-03-20T18:27:02.932Z,11.34
2023-03-20T18:29:29.659Z,11.22
2023-03-20T18:31:56.781Z,11.13
2023-03-20T18:34:23.512Z,11.04
2023-03-20T18:36:50.342Z,10.98
2023-03-20T18:39:18.597Z,10.84
2023-03-20T18:41:45.985Z,10.72
2023-03-20T18:44:13.102Z,10.59
2023-03-20T18:46:39.770Z,10.58
2023-03-20T18:49:07.091Z,10.58
2023-03-20T18:51:34.188Z,10.49
2023-03-20T18:54:00.927Z,10.37
2023-03-20T18:56:28.487Z,10.21
2023-03-20T18:58:55.558Z,10.07
2023-03-20T19:01:22.298Z,9.94
2023-03-20T19:03:49.625Z,9.80
2023-03-20T19:06:17.201Z,9.79
2023-03-20T19:08:45.100Z,9.82
2023-03-20T19:11:15.405Z,9.89
2023-03-20T19:13:49.272Z,9.93
2023-03-20T19:16:35.134Z,9.88
2023-03-20T19:19:04.091Z,10.04
2023-03-20T19:21:32.949Z,10.11
2023-03-20T19:24:02.403Z,10.18
2023-03-20T19:26:30.948Z,10.23
2023-03-20T19:28:59.313Z,10.25
2023-03-20T19:31:26.795Z,10.25
2023-03-20T19:33:53.756Z,10.20
2023-03-20T19:36:35.687Z,10.13
2023-03-20T19:39:08.700Z,10.10
2023-03-20T19:41:35.606Z,9.99
2023-03-20T19:44:02.488Z,9.85
2023-03-20T19:46:39.562Z,9.49
2023-03-20T19:49:17.717Z,9.39
2023-03-20T19:51:45.300Z,9.44
2023-03-20T19:54:12.163Z,9.61
2023-03-20T19:56:38.895Z,9.71
2023-03-20T19:59:06.002Z,9.73
2023-03-20T20:01:33.229Z,9.71
2023-03-20T20:04:00.219Z,9.63
2023-03-20T20:06:32.173Z,9.51
2023-03-20T20:09:01.000Z,9.37
2023-03-20T20:11:27.959Z,9.34
2023-03-20T20:14:06.677Z,9.37
2023-03-20T20:16:39.681Z,9.41
2023-03-20T20:19:08.078Z,9.40
2023-03-20T20:22:19.503Z,9.55
2023-03-20T20:24:23.294Z,9.50
2023-03-20T20:27:03.496Z,9.63
2023-03-20T20:29:38.077Z,9.64
2023-03-20T20:32:05.129Z,9.64
2023-03-20T20:40:06.097Z,9.63
2023-03-20T20:42:32.854Z,9.61
2023-03-20T20:44:59.581Z,9.57
2023-03-20T20:47:26.303Z,9.46
2023-03-20T20:49:53.870Z,9.30
2023-03-20T20:52:21.048Z,9.23
2023-03-20T20:54:48.365Z,9.21
2023-03-20T20:57:15.611Z,9.21
2023-03-20T20:59:42.285Z,9.22
2023-03-20T21:02:15.419Z,9.24
2023-03-20T21:04:43.727Z,9.21
2023-03-20T21:07:12.141Z,9.24
2023-03-20T21:09:39.664Z,9.14
2023-03-20T21:12:08.088Z,9.01
2023-03-20T21:14:34.990Z,8.95
2023-03-20T21:17:01.990Z,8.88
2023-03-20T21:19:33.329Z,8.69
2023-03-20T21:22:00.091Z,8.59
2023-03-20T21:24:33.260Z,8.43
2023-03-20T21:27:06.837Z,8.30
2023-03-20T21:29:34.264Z,8.19
2023-03-20T21:32:01.114Z,8.31
2023-03-20T21:34:29.075Z,8.30
2023-03-20T21:36:57.779Z,8.29
2023-03-20T21:39:27.584Z,8.33
2023-03-20T21:41:54.294Z,8.31
2023-03-20T21:44:57.431Z,8.27
2023-03-20T22:04:45.016Z,7.73
2023-03-20T22:07:24.014Z,7.81
2023-03-20T22:12:53.536Z,7.48
2023-03-20T22:18:42.473Z,6.86
2023-03-20T22:21:21.877Z,6.74
2023-03-20T22:24:05.595Z,6.88
2023-03-20T22:35:16.886Z,6.93
2023-03-20T22:38:21.818Z,6.80
2023-03-20T22:43:26.522Z,6.76
2023-03-20T22:45:52.070Z,6.90
2023-03-20T22:48:21.891Z,7.02
2023-03-20T22:50:50.249Z,7.06
2023-03-20T22:53:18.298Z,7.11
2023-03-20T22:55:46.781Z,7.35
2023-03-20T22:58:14.752Z,7.28
2023-03-20T23:00:42.699Z,7.28
2023-03-20T23:03:22.293Z,7.28
2023-03-20T23:05:53.717Z,7.26
2023-03-20T23:08:21.192Z,7.23
2023-03-20T23:10:49.959Z,7.28
2023-03-20T23:13:17.984Z,7.45
2023-03-20T23:15:48.335Z,7.60
2023-03-20T23:18:15.430Z,7.73
2023-03-20T23:20:42.729Z,7.70
2023-03-20T23:23:09.764Z,7.58
2023-03-20T23:25:39.700Z,7.61
2023-03-20T23:28:08.978Z,7.65
2023-03-20T23:31:07.492Z,7.66
2023-03-20T23:33:23.481Z,7.53
2023-03-20T23:36:01.279Z,7.34
2023-03-20T23:38:36.304Z,7.15
2023-03-20T23:41:03.006Z,6.97
2023-03-20T23:43:29.804Z,6.52
2023-03-20T23:45:56.497Z,6.85
2023-03-20T23:48:23.813Z,7.03
2023-03-20T23:50:53.382Z,7.04
2023-03-20T23:53:21.369Z,6.91
2023-03-20T23:55:50.865Z,6.77
2023-03-20T23:58:18.169Z,6.69
